NCAR-RAP Real-Time Weather Data

Output produced by METARs form (17 October 2018  15:35 UTC)
found at http://weather.rap.ucar.edu/surface/
 
Conditions at: KLAL observed 17 October 2018  14:55 UTC
Temperature: 29.0°C (84°F)
Dewpoint: 25.0°C (77°F) [RH = 79%]
Pressure (altimeter): 30.16 inches Hg (1021.4 mb)
Winds: from the SSE (150 degrees) at 10 MPH (9 knots; 4.7 m/s)
Visibility: 10 or more miles (16+ km)
Ceiling: at least 12,000 feet AGL
Clouds: scattered clouds at 2500 feet AGL
Present Weather: no significant weather observed at this time
KLAL 171455Z 15009KT 10SM SCT025 29/25 A3016

Conditions at: KLAL observed 17 October 2018  13:45 UTC
Temperature: 28.0°C (82°F)
Dewpoint: 23.0°C (73°F) [RH = 74%]
Pressure (altimeter): 30.16 inches Hg (1021.4 mb)
Winds: from the SE (130 degrees) at 8 MPH (7 knots; 3.6 m/s)
Visibility: 10 or more miles (16+ km)
Ceiling: at least 12,000 feet AGL
Clouds: scattered clouds at 1400 feet AGL
Present Weather: no significant weather observed at this time
KLAL 171345Z 13007KT 10SM SCT014 28/23 A3016

Conditions at: KLAL observed 17 October 2018  12:45 UTC
Temperature: 25.0°C (77°F)
Dewpoint: 23.0°C (73°F) [RH = 89%]
Pressure (altimeter): 30.15 inches Hg (1021.1 mb)
Winds: calm
Visibility: 10 or more miles (16+ km)
Ceiling: at least 12,000 feet AGL
Clouds: clear skies
Present Weather: no significant weather observed at this time
KLAL 171245Z 00000KT 10SM SKC 25/23 A3015

Conditions at: KLAL observed 17 October 2018  11:45 UTC
Temperature: 23.0°C (73°F)
Dewpoint: 23.0°C (73°F) [RH = 100%]
Pressure (altimeter): 30.13 inches Hg (1020.4 mb)
Winds: calm
Visibility: 10 or more miles (16+ km)
Ceiling: at least 12,000 feet AGL
Clouds: clear skies
Present Weather: no significant weather observed at this time
KLAL 171145Z 00000KT 10SM SKC 23/23 A3013

Conditions at: KLAL observed 17 October 2018  10:50 UTC
Temperature: 23.0°C (73°F)
Dewpoint: 22.0°C (72°F) [RH = 94%]
Pressure (altimeter): 30.12 inches Hg (1020.1 mb)
Winds: from the NE (50 degrees) at 5 MPH (4 knots; 2.1 m/s)
Visibility: 10 or more miles (16+ km)
Ceiling: at least 12,000 feet AGL
Clouds: clear skies
Present Weather: no significant weather observed at this time
KLAL 171050Z 05004KT 10SM SKC 23/22 A3012

Conditions at: KLAL observed 17 October 2018  09:50 UTC
Temperature: 23.0°C (73°F)
Dewpoint: 22.0°C (72°F) [RH = 94%]
Pressure (altimeter): 30.10 inches Hg (1019.4 mb)
Winds: calm
Visibility: 10 or more miles (16+ km)
Ceiling: at least 12,000 feet AGL
Clouds: clear skies
Present Weather: no significant weather observed at this time
KLAL 170950Z 00000KT 10SM SKC 23/22 A3010

Conditions at: KLAL observed 17 October 2018  09:35 UTC
Temperature: 23.0°C (73°F)
Dewpoint: 22.0°C (72°F) [RH = 94%]
Pressure (altimeter): 30.10 inches Hg (1019.4 mb)
Winds: calm
Visibility: 10 or more miles (16+ km)
Ceiling: at least 12,000 feet AGL
Clouds: sky clear below 12,000 feet AGL
Present Weather: automated observation with no human augmentation;
there may or may not be significant weather present at this time
KLAL 170935Z AUTO 00000KT 10SM CLR 23/22 A3010 RMK AO2

Conditions at: KLAL observed 17 October 2018  08:55 UTC
Temperature: 23.0°C (73°F)
Dewpoint: 22.0°C (72°F) [RH = 94%]
Pressure (altimeter): 30.09 inches Hg (1019.0 mb)
Winds: calm
Visibility: 10 or more miles (16+ km)
Ceiling: at least 12,000 feet AGL
Clouds: sky clear below 12,000 feet AGL
Present Weather: automated observation with no human augmentation;
there may or may not be significant weather present at this time
KLAL 170855Z AUTO 00000KT 10SM CLR 23/22 A3009 RMK AO2

Conditions at: KLAL observed 17 October 2018  04:55 UTC
Temperature: 25.0°C (77°F)
Dewpoint: 22.0°C (72°F) [RH = 83%]
Pressure (altimeter): 30.13 inches Hg (1020.4 mb)
Winds: from the SE (130 degrees) at 5 MPH (4 knots; 2.1 m/s)
Visibility: 10 or more miles (16+ km)
Ceiling: at least 12,000 feet AGL
Clouds: sky clear below 12,000 feet AGL
Present Weather: automated observation with no human augmentation;
there may or may not be significant weather present at this time
KLAL 170455Z AUTO 13004KT 10SM CLR 25/22 A3013 RMK AO2

Conditions at: KLAL observed 17 October 2018  04:35 UTC
Temperature: 25.0°C (77°F)
Dewpoint: 22.0°C (72°F) [RH = 83%]
Pressure (altimeter): 30.13 inches Hg (1020.4 mb)
Winds: from the SE (130 degrees) at 5 MPH (4 knots; 2.1 m/s)
Visibility: 10 or more miles (16+ km)
Ceiling: at least 12,000 feet AGL
Clouds: sky clear below 12,000 feet AGL
Present Weather: automated observation with no human augmentation;
there may or may not be significant weather present at this time
KLAL 170435Z AUTO 13004KT 10SM CLR 25/22 A3013 RMK AO2

Conditions at: KLAL observed 17 October 2018  03:55 UTC
Temperature: 25.0°C (77°F)
Dewpoint: 22.0°C (72°F) [RH = 83%]
Pressure (altimeter): 30.13 inches Hg (1020.4 mb)
Winds: from the ESE (120 degrees) at 5 MPH (4 knots; 2.1 m/s)
Visibility: 10 or more miles (16+ km)
Ceiling: at least 12,000 feet AGL
Clouds: sky clear below 12,000 feet AGL
Present Weather: automated observation with no human augmentation;
there may or may not be significant weather present at this time
KLAL 170355Z AUTO 12004KT 10SM CLR 25/22 A3013 RMK AO2

Conditions at: KLAL observed 17 October 2018  03:35 UTC
Temperature: 25.0°C (77°F)
Dewpoint: 22.0°C (72°F) [RH = 83%]
Pressure (altimeter): 30.13 inches Hg (1020.4 mb)
Winds: from the ESE (120 degrees) at 5 MPH (4 knots; 2.1 m/s)
Visibility: 10 or more miles (16+ km)
Ceiling: at least 12,000 feet AGL
Clouds: sky clear below 12,000 feet AGL
Present Weather: automated observation with no human augmentation;
there may or may not be significant weather present at this time
KLAL 170335Z AUTO 12004KT 10SM CLR 25/22 A3013 RMK AO2

Conditions at: KLAL observed 17 October 2018  03:15 UTC
Temperature: 26.0°C (79°F)
Dewpoint: 22.0°C (72°F) [RH = 79%]
Pressure (altimeter): 30.13 inches Hg (1020.4 mb)
Winds: from the SE (130 degrees) at 6 MPH (5 knots; 2.6 m/s)
Visibility: 10 or more miles (16+ km)
Ceiling: at least 12,000 feet AGL
Clouds: sky clear below 12,000 feet AGL
Present Weather: automated observation with no human augmentation;
there may or may not be significant weather present at this time
KLAL 170315Z AUTO 13005KT 10SM CLR 26/22 A3013 RMK AO2 LTG DSNT SW

Conditions at: KLAL observed 17 October 2018  01:50 UTC
Temperature: 27.0°C (81°F)
Dewpoint: 22.0°C (72°F) [RH = 74%]
Pressure (altimeter): 30.11 inches Hg (1019.7 mb)
Winds: from the ESE (110 degrees) at 7 MPH (6 knots; 3.1 m/s)
Visibility: 10 or more miles (16+ km)
Ceiling: at least 12,000 feet AGL
Clouds: clear skies
Present Weather: no significant weather observed at this time
KLAL 170150Z 11006KT 10SM SKC 27/22 A3011

Conditions at: KLAL observed 17 October 2018  00:50 UTC
Temperature: 28.0°C (82°F)
Dewpoint: 22.0°C (72°F) [RH = 70%]
Pressure (altimeter): 30.10 inches Hg (1019.4 mb)
Winds: from the ESE (110 degrees) at 7 MPH (6 knots; 3.1 m/s)
Visibility: 10 or more miles (16+ km)
Ceiling: at least 12,000 feet AGL
Clouds: scattered clouds at 6000 feet AGL
Present Weather: no significant weather observed at this time
KLAL 170050Z 11006KT 10SM SCT060 28/22 A3010

Conditions at: KLAL observed 16 October 2018  23:50 UTC
Temperature: 29.0°C (84°F)
Dewpoint: 22.0°C (72°F) [RH = 66%]
Pressure (altimeter): 30.08 inches Hg (1018.7 mb)
Winds: from the E (100 degrees) at 7 MPH (6 knots; 3.1 m/s)
Visibility: 10 or more miles (16+ km)
Ceiling: at least 12,000 feet AGL
Clouds: scattered clouds at 6000 feet AGL
Present Weather: no significant weather observed at this time
KLAL 162350Z 10006KT 10SM SCT060 29/22 A3008

Conditions at: KLAL observed 16 October 2018  22:50 UTC
Temperature: 31.0°C (88°F)
Dewpoint: 22.0°C (72°F) [RH = 59%]
Pressure (altimeter): 30.06 inches Hg (1018.0 mb)
Winds: from the E (90 degrees) at 6 MPH (5 knots; 2.6 m/s)
Visibility: 10 or more miles (16+ km)
Ceiling: 5000 feet AGL
Clouds: broken clouds at 5000 feet AGL
Present Weather: no significant weather observed at this time
KLAL 162250Z 09005KT 10SM BKN050 31/22 A3006

Conditions at: KLAL observed 16 October 2018  21:55 UTC
Temperature: 33.0°C (91°F)
Dewpoint: 21.0°C (70°F) [RH = 49%]
Pressure (altimeter): 30.05 inches Hg (1017.7 mb)
Winds: from the E (100 degrees) at 10 MPH (9 knots; 4.7 m/s)
Visibility: 10 or more miles (16+ km)
Ceiling: 5000 feet AGL
Clouds: broken clouds at 5000 feet AGL
Present Weather: no significant weather observed at this time
KLAL 162155Z 10009KT 10SM BKN050 33/21 A3005

Conditions at: KLAL observed 16 October 2018  20:50 UTC
Temperature: 33.0°C (91°F)
Dewpoint: 20.0°C (68°F) [RH = 46%]
Pressure (altimeter): 30.04 inches Hg (1017.4 mb)
Winds: from the ESE (110 degrees) at 5 MPH (4 knots; 2.1 m/s)
Visibility: 10 or more miles (16+ km)
Ceiling: 5000 feet AGL
Clouds: broken clouds at 5000 feet AGL
Present Weather: no significant weather observed at this time
KLAL 162050Z 11004KT 10SM BKN050 33/20 A3004

Conditions at: KLAL observed 16 October 2018  19:50 UTC
Temperature: 34.0°C (93°F)
Dewpoint: 21.0°C (70°F) [RH = 47%]
Pressure (altimeter): 30.04 inches Hg (1017.4 mb)
Winds: from the E (90 degrees) at 7 MPH (6 knots; 3.1 m/s)
Visibility: 10 or more miles (16+ km)
Ceiling: 5500 feet AGL
Clouds: broken clouds at 5500 feet AGL
Present Weather: no significant weather observed at this time
KLAL 161950Z 09006KT 10SM BKN055 34/21 A3004

Conditions at: KLAL observed 16 October 2018  18:50 UTC
Temperature: 33.0°C (91°F)
Dewpoint: 21.0°C (70°F) [RH = 49%]
Pressure (altimeter): 30.05 inches Hg (1017.7 mb)
Winds: from the SE (140 degrees) at 7 MPH (6 knots; 3.1 m/s)
Visibility: 10 or more miles (16+ km)
Ceiling: at least 12,000 feet AGL
Clouds: scattered clouds at 5000 feet AGL
Present Weather: no significant weather observed at this time
KLAL 161850Z 14006KT 10SM SCT050 33/21 A3005

Conditions at: KLAL observed 16 October 2018  17:50 UTC
Temperature: 33.0°C (91°F)
Dewpoint: 22.0°C (72°F) [RH = 53%]
Pressure (altimeter): 30.06 inches Hg (1018.0 mb)
Winds: from the E (100 degrees) at 7 MPH (6 knots; 3.1 m/s)
Visibility: 10 or more miles (16+ km)
Ceiling: at least 12,000 feet AGL
Clouds: scattered clouds at 4000 feet AGL
Present Weather: no significant weather observed at this time
KLAL 161750Z 10006KT 10SM SCT040 33/22 A3006

Conditions at: KLAL observed 16 October 2018  16:45 UTC
Temperature: 31.0°C (88°F)
Dewpoint: 22.0°C (72°F) [RH = 59%]
Pressure (altimeter): 30.10 inches Hg (1019.4 mb)
Winds: from the ESE (120 degrees) at 10 MPH (9 knots; 4.7 m/s)
gusting to 16 MPH (14 knots; 7.3 m/s)
Visibility: 10 or more miles (16+ km)
Ceiling: at least 12,000 feet AGL
Clouds: scattered clouds at 3600 feet AGL
Present Weather: no significant weather observed at this time
KLAL 161645Z 12009G14KT 10SM SCT036 31/22 A3010

Conditions at: KLAL observed 16 October 2018  15:50 UTC
Temperature: 31.0°C (88°F)
Dewpoint: 23.0°C (73°F) [RH = 63%]
Pressure (altimeter): 30.12 inches Hg (1020.1 mb)
Winds: from the ESE (120 degrees) at 12 MPH (10 knots; 5.2 m/s)
Visibility: 10 or more miles (16+ km)
Ceiling: at least 12,000 feet AGL
Clouds: scattered clouds at 3000 feet AGL
Present Weather: no significant weather observed at this time
KLAL 161550Z 12010KT 10SM SCT030 31/23 A3012